Flight Track Log - Related Links

Times and Time Zones

All times are in EDT time to prevent confusion due to time zone crossing. See the GPD590 flight status page for this flight to view local times or setup timezone preferences in your user account.

Time Position Orientation Groundspeed Altitude Reporting Facility
EDT Latitude Longitude Course Direction KTS MPH feet Rate Location/Type
Fri 08:25:49 PM 40.9000 -74.0667 62° Northeast 175 201 2,300  Level New York TRACON
Fri 08:26:50 PM 40.9333 -74.1167 311° West 183 211 3,700 1,339 Climbing New York TRACON
Fri 08:27:50 PM 40.9667 -74.1667 311° West 185 213 5,000 1,200 Climbing New York TRACON
Fri 08:28:50 PM 41.0000 -74.1667 360° North 172 198 6,100 1,150 Climbing New York TRACON
Fri 08:29:50 PM 41.0500 -74.1500 14° North 177 204 7,300 1,200 Climbing New York TRACON
Fri 08:30:50 PM 41.1000 -74.1500 360° North 184 212 8,500 1,100 Climbing New York TRACON
Fri 08:31:00 PM 41.0163 -73.6093 62° Northeast  Level FlightAware Approximate
Fri 08:31:50 PM 41.1333 -74.1000 48° Northeast 183 211 9,500  Level New York TRACON
Fri 08:32:50 PM 41.1500 -74.0333 72° East 180 207 10,700 1,210 Climbing New York TRACON
Fri 08:33:49 PM 41.1667 -73.9667 72° East 188 216 11,900 655 Climbing New York TRACON
Fri 08:34:49 PM 41.1833 -73.9000 72° East 219 252 12,000 50 Climbing New York TRACON
Fri 08:35:50 PM 41.2167 -73.8167 62° Northeast 244 281 12,000  Level New York TRACON
Fri 08:36:50 PM 41.2333 -73.7167 77° East 248 285 12,000 622 Level New York TRACON
Fri 08:39:03 PM 41.2467 -73.5444 84° East 225 259 14,000 1,026 Climbing Boston Center
Fri 08:40:03 PM 41.2517 -73.4672 85° East 209 241 15,300 966 Climbing Boston Center
Fri 08:41:01 PM 41.2564 -73.3928 85° East 209 241 15,900 303 Climbing Boston Center
Fri 08:42:02 PM 41.2633 -73.3128 83° East 222 255 15,900  Level Boston Center
Fri 08:43:03 PM 41.2681 -73.2189 86° East 236 272 15,900 50 Level Boston Center
Fri 08:44:01 PM 41.2728 -73.1278 86° East 242 278 16,000 400 Climbing Boston Center
Fri 08:45:03 PM 41.2797 -73.0256 85° East 247 284 16,700 492 Climbing Boston Center
Fri 08:46:03 PM 41.2822 -72.9511 87° East 235 270 17,000 153 Climbing Boston Center
Fri 08:47:01 PM 41.2889 -72.8489 85° East 235 270 17,000  Level Boston Center
Fri 08:48:02 PM 41.2933 -72.7661 86° East 240 276 17,000  Level Boston Center
Fri 08:49:02 PM 41.2978 -72.6611 87° East 246 283 17,000  Level Boston Center
Fri 08:50:03 PM 41.3042 -72.5728 84° East 258 297 17,000  Level Boston Center
Fri 08:51:01 PM 41.3106 -72.4678 85° East 258 297 17,000  Level Boston Center
Fri 08:52:01 PM 41.3125 -72.3819 88° East 252 290 17,000  Level Boston Center
Fri 08:53:01 PM 41.3000 -72.2797 99° East 258 297 17,000  Level Boston Center
Fri 08:54:02 PM 41.2914 -72.1942 98° East 258 297 17,000  Level Boston Center
Fri 08:55:02 PM 41.2767 -72.0922 101° East 258 297 17,000 -50 Level Boston Center
Fri 08:56:03 PM 41.2658 -72.0011 99° East 263 303 16,900 -50 Descending Boston Center
Fri 08:57:01 PM 41.2550 -71.9017 98° East 255 293 16,900  Level Boston Center
Fri 08:58:01 PM 41.2442 -71.8189 100° East 249 287 16,900  Level Boston Center
Fri 08:59:01 PM 41.2289 -71.7142 101° East 256 295 16,900  Level Boston Center
Fri 09:00:01 PM 41.2178 -71.6289 100° East 256 295 16,900 50 Level Boston Center
Fri 09:01:01 PM 41.2047 -71.5269 100° East 256 295 17,000 -446 Climbing Boston Center
Fri 09:02:02 PM 41.1933 -71.4278 99° East 261 300 16,000 -942 Descending Boston Center
Fri 09:03:02 PM 41.1800 -71.3258 100° East 277 319 15,100 -992 Descending Boston Center
Fri 09:04:03 PM 41.1664 -71.2214 100° East 277 319 14,000 -1,008 Descending Boston Center
Fri 09:05:01 PM 41.1672 -71.1194 89° East 277 319 13,100 -966 Descending Boston Center
Fri 09:06:01 PM 41.1764 -71.0200 83° East 271 312 12,100 -893 Descending Boston Center
Fri 09:07:02 PM 41.1856 -70.9231 83° East 271 312 11,300 -800 Descending Boston Center
Fri 09:08:01 PM 41.1947 -70.8319 82° East 261 300 10,500 -900 Descending Boston Center
Fri 09:09:02 PM 41.2039 -70.7378 83° East 254 292 9,500 -1,033 Descending Boston Center
Fri 09:10:03 PM 41.2106 -70.6411 85° East 254 292 8,400 -1,160 Descending Boston Center
Fri 09:11:01 PM 41.2069 -70.5500 93° East 254 292 7,200 -1,169 Descending Boston Center
Fri 09:12:01 PM 41.2033 -70.4619 93° East 254 292 6,100 -1,091 Descending Boston Center
Fri 09:13:02 PM 41.2000 -70.3792 93° East 242 278 5,000 -1,200 Descending Boston Center
Fri 09:14:01 PM 41.1983 -70.2994 92° East 229 264 3,700 -1,261 Descending Boston Center
Fri 09:15:01 PM 41.1953 -70.2386 94° East 223 257 2,500 3,650 Descending Boston Center
Fri 09:16:01 PM 41.1869 -70.1425 97° East 223 257 11,000 8,500 Climbing Boston Center
Fri 09:18:00 PM 41.2500 -70.0500 77° East  Level FlightAware Approximate
Fri 09:25:00 PM 41.2530 -70.0599 77° East  Level Estimated
Fri 09:26:00 PM 41.2530 -70.0599 77° East  Level Estimated
Fri 09:27:00 PM 41.2530 -70.0599 77° East  Level Estimated
Fri 09:28:00 PM 41.2530 -70.0599 77° East  Level Estimated
Fri 09:29:00 PM 41.2530 -70.0599 77° East  Level Estimated
Fri 09:30:00 PM 41.2530 -70.0599 77° East  Level Estimated
Fri 09:31:00 PM 41.2530 -70.0599 77° East  Level Estimated
Fri 09:32:00 PM 41.2530 -70.0599 77° East  Level Estimated

Login

Don't have an account? Register now (free) for customized features, flight alerts, and more!